Time;durP1;ratioP1;P1;durP2;ratioP2;P2;SDS_P1;SDS_P2;PMS_P1;PMS_P2;Temp;Humidity;BMP_temperature;BMP_pressure;BME280_temperature;BME280_humidity;BME280_pressure;Samples;Min_cycle;Max_cycle;Signal;HPM_P1;HPM_P2
2023/03/10 09:41:09;;;;;;;2.72;1.42;;;;;;;;;;4585796;31;20253;-61
2023/03/10 09:45:30;;;;;;;2.42;1.60;;;;;;;19.07;43.23;90425.59;4587099;31;20033;-67
2023/03/10 09:51:19;;;;;;;;;;;;;;;19.00;43.65;90415.97;7144626;19;20661;-60
2023/03/10 09:53:56;;;;;;;4.60;1.80;;;;;;;18.93;43.73;90420.91;7168432;20;20009;-60
2023/03/10 09:56:26;;;;;;;;;;;;;;;18.89;43.67;90418.16;7170472;20;20169;-60
2023/03/10 09:58:59;;;;;;;3.20;1.70;;;;;;;18.81;43.53;90418.22;7169215;20;19900;-60
2023/03/10 10:01:31;;;;;;;4.50;1.40;;;;;;;18.77;43.58;90418.28;7169431;20;20012;-61
2023/03/10 10:04:03;;;;;;;1.40;1.20;;;;;;;18.76;43.84;90416.88;7169053;20;20008;-61
2023/03/10 10:06:36;;;;;;;2.10;1.20;;;;;;;18.77;43.57;90409.97;7168925;20;20036;-61
2023/03/10 10:09:08;;;;;;;2.40;1.50;;;;;;;18.77;43.98;90402.34;7168984;20;20296;-60
2023/03/10 10:11:38;;;;;;;2.20;1.50;;;;;;;18.76;43.60;90395.47;7169548;20;20029;-60
2023/03/10 10:14:18;;;;;;;2.20;1.40;;;;;;;18.73;43.72;90391.28;7168887;20;20033;-62
2023/03/10 10:16:51;;;;;;;5.10;1.60;;;;;;;18.73;43.66;90389.22;7168971;20;20038;-62
2023/03/10 10:19:22;;;;;;;2.50;1.40;;;;;;;18.73;43.54;90380.91;7168771;20;20090;-61
2023/03/10 10:21:59;;;;;;;2.00;1.30;;;;;;;18.74;43.72;90382.28;7168180;20;20027;-62
2023/03/10 10:24:28;;;;;;;1.70;1.20;;;;;;;18.71;43.75;90380.94;7167549;20;20169;-61
2023/03/10 10:26:56;;;;;;;2.60;1.20;;;;;;;18.74;43.54;90381.59;7167338;20;19997;-61
2023/03/10 10:29:26;;;;;;;1.40;1.30;;;;;;;18.74;43.79;90379.53;7167352;20;20037;-61
2023/03/10 10:32:08;;;;;;;4.40;1.40;;;;;;;18.72;43.90;90376.78;7167473;20;20074;-61
2023/03/10 10:34:37;;;;;;;3.70;1.50;;;;;;;18.73;43.81;90375.38;7167270;20;20036;-61
2023/03/10 10:37:23;;;;;;;3.30;1.50;;;;;;;18.75;43.76;90371.91;7167249;20;20088;-62
2023/03/10 10:39:53;;;;;;;2.40;1.40;;;;;;;18.74;43.63;90376.06;7167319;20;20012;-60
2023/03/10 10:42:24;;;;;;;2.30;1.30;;;;;;;18.74;43.73;90376.06;7168253;20;20079;-60
2023/03/10 10:44:54;;;;;;;2.30;1.50;;;;;;;18.71;43.61;90385.78;7168311;20;20016;-60
2023/03/10 10:52:37;;;;;;;3.50;1.30;;;;;;;20.15;41.00;90387.47;7126017;19;20059;-64
2023/03/10 10:55:07;;;;;;;5.40;1.30;;;;;;;19.93;42.27;90394.72;7146217;20;20059;-60
2023/03/10 10:59:34;;;;;;;2.20;1.40;;;;;;;20.01;41.62;90413.34;7025278;20;32130;-67
2023/03/10 11:02:05;;;;;;;3.45;1.60;;;;;;;20.12;41.38;90413.88;6975234;20;598960;-71
2023/03/10 11:04:46;;;;;;;1.90;1.20;;;;;;;20.14;41.19;90420.09;7006268;20;600016;-67
2023/03/10 11:09:17;;;;;;;3.00;1.60;;;;;;;20.26;41.25;90426.88;7134912;19;20105;-69
2023/03/10 11:56:03;;;;;;;3.90;2.50;;;;;;;20.27;41.77;90359.53;1734971;75;20143;-71
2023/03/10 11:58:53;;;;;;;3.70;1.70;;;;;;;19.58;36.93;90370.25;1742830;64;178288;-69
2023/03/10 12:01:39;;;;;;;4.20;1.80;;;;;;;19.83;38.47;90372.00;1741133;64;68982;-69
2023/03/10 12:04:36;;;;;;;6.20;1.60;;;;;;;19.96;40.15;90362.81;1735102;75;20061;-68
2023/03/10 12:07:03;;;;;;;3.70;1.50;;;;;;;20.03;40.23;90366.16;1735622;75;20337;-68
2023/03/10 12:09:50;;;;;;;2.70;1.50;;;;;;;20.10;40.71;90372.97;1734886;75;20050;-72
2023/03/10 12:12:37;;;;;;;2.50;1.40;;;;;;;20.13;40.72;90371.56;1734971;75;20327;-69
2023/03/10 12:15:19;;;;;;;6.00;1.50;;;;;;;20.18;40.84;90372.88;1749292;64;239784;-69
2023/03/10 12:17:54;;;;;;;1.70;1.20;;;;;;;20.28;40.93;90365.78;1727661;64;758933;-73
2023/03/10 12:20:20;;;;;;;;;;;;;;;20.24;41.04;90363.06;1719088;75;681680;-70
2023/03/10 12:22:58;;;;;;;1.35;1.05;;;;;;;20.28;40.70;90363.69;1726437;64;732064;-67
2023/03/10 12:25:32;;;;;;;2.00;1.20;;;;;;;20.28;40.70;90363.69;1523219;64;16041407;-69
2023/03/10 12:28:15;;;;;;;1.40;0.90;;;;;;;20.29;41.01;90351.19;1718618;75;695696;-67
2023/03/10 12:31:31;;;;;;;2.40;1.10;;;;;;;20.32;40.83;90346.97;1710751;75;707430;-70
2023/03/10 12:34:23;;;;;;;2.10;1.10;;;;;;;20.34;40.90;90343.47;1641154;75;6447277;-71
2023/03/10 12:37:11;;;;;;;1.90;1.20;;;;;;;20.37;40.79;90339.97;1710063;75;720155;-71
2023/03/10 12:39:42;;;;;;;4.05;1.50;;;;;;;20.38;41.11;90332.31;1666615;75;4382895;-74
2023/03/10 12:42:37;;;;;;;2.80;1.70;;;;;;;20.36;40.74;90327.47;1718922;75;698050;-76
2023/03/10 12:45:30;;;;;;;3.65;1.20;;;;;;;20.20;41.04;90331.22;1710612;75;736227;-75
2023/03/10 12:48:17;;;;;;;2.90;1.30;;;;;;;20.20;41.04;90331.22;1709368;75;807021;-73
2023/03/10 12:50:55;;;;;;;3.30;1.30;;;;;;;20.16;40.79;90328.50;1711211;75;673228;-73
2023/03/10 12:53:45;;;;;;;2.55;1.20;;;;;;;20.16;40.82;90305.63;1719703;75;674913;-72
2023/03/10 12:56:11;;;;;;;4.10;1.20;;;;;;;20.14;40.76;90300.09;1711000;75;744972;-73
2023/03/10 12:58:43;;;;;;;1.80;1.20;;;;;;;20.15;40.66;90301.47;1719545;75;681872;-72
2023/03/10 13:01:14;;;;;;;1.40;1.00;;;;;;;20.13;40.90;90295.94;1711176;75;683012;-75
2023/03/10 13:03:46;;;;;;;1.10;0.90;;;;;;;20.13;40.91;90304.28;1719380;75;675737;-72
2023/03/10 13:06:12;;;;;;;1.55;1.00;;;;;;;20.13;40.92;90296.66;1710253;75;753579;-73
2023/03/10 13:08:47;;;;;;;2.95;1.30;;;;;;;20.13;40.92;90284.84;1719538;75;669456;-73
2023/03/10 13:11:42;;;;;;;2.00;1.00;;;;;;;20.10;40.95;90289.06;1710662;75;732945;-71
2023/03/10 13:14:40;;;;;;;2.70;1.00;;;;;;;20.04;39.79;90303.06;1711315;75;678241;-78
2023/03/10 13:17:24;;;;;;;2.80;1.20;;;;;;;20.17;40.16;90307.66;1711066;75;674827;-78
2023/03/10 13:20:10;;;;;;;2.10;1.40;;;;;;;20.11;40.70;90315.44;1711163;75;674482;-77
2023/03/10 13:22:36;;;;;;;1.90;1.25;;;;;;;20.11;40.70;90316.09;1719960;75;673955;-80
2023/03/10 13:25:08;;;;;;;1.95;1.10;;;;;;;20.13;40.52;90318.16;1711151;75;679973;-81
2023/03/10 13:27:35;;;;;;;3.60;1.30;;;;;;;20.13;40.52;90318.16;1718600;75;692217;-79
2023/03/10 13:30:12;;;;;;;;;;;;;;;20.12;40.79;90300.81;1710050;75;685795;-78
2023/03/10 13:32:38;;;;;;;;;;;;;;;20.08;40.92;90303.66;1717567;75;692861;-81
2023/03/10 13:35:40;;;;;;;1.90;1.00;;;;;;;20.13;41.15;90304.97;1709484;75;706797;-80
2023/03/10 13:38:12;;;;;;;2.05;1.15;;;;;;;20.11;41.17;90326.53;1709685;75;675323;-79
2023/03/10 13:41:10;;;;;;;2.70;1.30;;;;;;;20.10;41.17;90359.09;1718337;75;679694;-81
2023/03/10 13:43:40;;;;;;;1.65;1.30;;;;;;;20.09;41.26;90357.75;1709490;75;740077;-78
2023/03/10 13:46:31;;;;;;;1.70;1.05;;;;;;;20.04;41.52;90373.09;1717649;75;678443;-79
2023/03/10 13:49:07;;;;;;;3.30;1.20;;;;;;;20.21;41.56;90379.06;1708003;75;855973;-80
2023/03/10 13:51:36;;;;;;;2.50;1.10;;;;;;;20.24;41.58;90399.81;1713923;75;669329;-66
2023/03/10 13:54:24;;;;;;;2.65;1.30;;;;;;;20.21;41.62;90404.03;1717646;75;678542;-76
2023/03/10 13:57:01;;;;;;;;;;;;;;;20.19;41.67;90410.28;1709920;75;691669;-79
2023/03/10 13:59:30;;;;;;;;;;;;;;;20.14;41.89;90413.84;1717638;75;676816;-79
2023/03/10 14:02:00;;;;;;;4.30;1.20;;;;;;;20.22;41.92;90408.84;1709905;75;669239;-76
2023/03/10 14:04:52;;;;;;;3.10;1.30;;;;;;;20.14;42.02;90430.50;1717532;75;675374;-76
2023/03/10 14:07:28;;;;;;;2.15;1.35;;;;;;;20.16;41.91;90436.03;1708919;75;742705;-77
2023/03/10 14:10:03;;;;;;;2.20;1.40;;;;;;;20.18;41.81;90447.78;1709541;75;684020;-67
2023/03/10 14:12:53;;;;;;;1.80;1.30;;;;;;;20.12;41.85;90458.94;1718106;75;679348;-76
2023/03/10 14:15:19;;;;;;;1.65;1.10;;;;;;;20.09;41.88;90463.16;1708022;75;741072;-76
2023/03/10 14:17:51;;;;;;;3.50;1.25;;;;;;;20.09;42.21;90481.91;1717351;75;690098;-79
2023/03/10 14:20:46;;;;;;;4.50;1.10;;;;;;;20.13;42.05;90495.69;1708056;75;739489;-76
2023/03/10 14:23:18;;;;;;;2.60;1.00;;;;;;;20.07;42.11;90506.91;1710201;75;667696;-74
2023/03/10 14:25:46;;;;;;;5.95;1.25;;;;;;;20.05;42.07;90504.16;1717685;75;668075;-77
2023/03/10 14:28:18;;;;;;;;;;;;;;;20.03;42.01;90506.94;1709582;75;671934;-75
2023/03/10 14:30:44;;;;;;;2.30;1.20;;;;;;;20.03;42.03;90506.94;1717756;75;665605;-78
2023/03/10 14:33:15;;;;;;;4.00;1.40;;;;;;;20.02;42.03;90502.81;1709823;75;667471;-78
2023/03/10 14:35:44;;;;;;;2.60;1.40;;;;;;;19.97;42.17;90496.63;1717552;75;668443;-77
2023/03/10 14:38:11;;;;;;;2.05;1.20;;;;;;;19.95;42.13;90502.88;1709545;75;673775;-75
2023/03/10 14:40:41;;;;;;;2.60;1.10;;;;;;;19.93;42.22;90511.22;1717651;75;666559;-77
2023/03/10 14:43:31;;;;;;;2.60;1.30;;;;;;;19.92;42.20;90518.16;1709944;75;669788;-77
2023/03/10 14:46:00;;;;;;;1.30;1.00;;;;;;;19.90;42.21;90520.97;1709280;75;683162;-74
2023/03/10 14:48:33;;;;;;;2.50;1.30;;;;;;;19.87;42.25;90527.25;1717971;75;665657;-74
2023/03/10 14:50:59;;;;;;;2.90;1.40;;;;;;;19.87;42.18;90521.72;1709763;75;667318;-75
2023/03/10 14:53:27;;;;;;;3.00;1.30;;;;;;;19.85;42.23;90527.28;1717467;75;670926;-76
2023/03/10 14:55:57;;;;;;;1.90;1.20;;;;;;;19.78;42.24;90521.13;1717318;75;675431;-74
2023/03/10 14:58:49;;;;;;;1.85;1.20;;;;;;;19.74;42.33;90521.84;1708560;75;748156;-76
2023/03/10 15:01:18;;;;;;;1.60;1.05;;;;;;;19.76;42.39;90532.22;1709699;75;679446;-76
2023/03/10 15:03:45;;;;;;;3.50;0.90;;;;;;;19.81;42.20;90510.69;1717495;75;671814;-75
2023/03/10 15:06:13;;;;;;;2.10;1.20;;;;;;;19.75;42.32;90520.47;1709222;75;676601;-74
2023/03/10 15:08:40;;;;;;;2.10;1.00;;;;;;;19.82;42.15;90523.16;1717136;75;674076;-73
2023/03/10 15:11:07;;;;;;;2.05;1.00;;;;;;;19.86;42.55;90521.00;1709560;75;688736;-75
2023/03/10 15:13:35;;;;;;;1.10;0.80;;;;;;;19.92;42.41;90531.34;1717253;75;677803;-72
2023/03/10 15:16:01;;;;;;;;;;;;;;;19.78;40.69;90548.84;1709399;75;674481;-73
2023/03/10 15:18:28;;;;;;;1.80;0.80;;;;;;;19.83;41.03;90550.16;1717251;75;668299;-71
2023/03/10 15:20:57;;;;;;;2.45;1.05;;;;;;;19.88;41.54;90545.94;1717370;75;676993;-72
2023/03/10 15:23:26;;;;;;;2.00;1.00;;;;;;;19.88;41.99;90540.41;1709486;75;667808;-74
2023/03/10 15:25:52;;;;;;;;;;;;;;;19.87;42.17;90544.59;1717348;75;671329;-73
2023/03/10 15:28:19;;;;;;;1.70;1.00;;;;;;;19.87;42.23;90539.03;1709338;75;671268;-71
2023/03/10 15:30:45;;;;;;;2.50;1.00;;;;;;;19.89;42.13;90535.53;1717732;75;665626;-72
2023/03/10 15:33:12;;;;;;;1.75;0.90;;;;;;;19.88;42.32;90540.41;1709180;75;668478;-73
2023/03/10 15:35:39;;;;;;;1.80;1.10;;;;;;;19.87;42.35;90546.69;1717275;75;704145;-72
2023/03/10 15:38:06;;;;;;;2.10;1.00;;;;;;;19.86;42.32;90553.59;1709606;75;693213;-72
2023/03/10 15:40:37;;;;;;;1.60;0.70;;;;;;;19.86;42.37;90556.38;1717269;75;663592;-71
2023/03/10 15:43:03;;;;;;;1.30;0.90;;;;;;;19.84;42.20;90557.09;1709618;75;671619;-71
2023/03/10 15:45:30;;;;;;;1.20;0.80;;;;;;;19.85;42.21;90563.34;1717403;75;671509;-70
2023/03/10 15:47:57;;;;;;;2.00;0.90;;;;;;;19.82;42.31;90542.56;1716909;75;688968;-71
2023/03/10 15:50:23;;;;;;;;;;;;;;;19.82;42.48;90559.91;1709810;75;669434;-71
2023/03/10 15:52:56;;;;;;;1.90;0.90;;;;;;;19.80;42.38;90537.72;1717125;75;673617;-70
2023/03/10 15:55:23;;;;;;;1.10;0.80;;;;;;;19.80;42.17;90551.59;1709164;75;676424;-73
2023/03/10 15:57:50;;;;;;;6.10;1.20;;;;;;;19.81;42.21;90552.28;1717675;75;670871;-73
2023/03/10 16:00:18;;;;;;;1.95;1.10;;;;;;;19.79;42.16;90547.44;1709207;75;667725;-71
2023/03/10 16:02:46;;;;;;;1.65;1.00;;;;;;;19.78;42.28;90554.41;1716933;75;669847;-70
2023/03/10 16:05:13;;;;;;;1.20;0.80;;;;;;;19.78;42.30;90565.47;1708484;75;674815;-72
2023/03/10 16:07:39;;;;;;;1.20;0.80;;;;;;;19.78;42.30;90565.47;1716436;75;668894;-72
2023/03/10 16:10:05;;;;;;;1.10;0.90;;;;;;;19.76;42.22;90565.50;1708961;75;670402;-74
2023/03/10 16:12:32;;;;;;;1.40;1.10;;;;;;;19.74;42.26;90568.97;1717384;75;672459;-70
2023/03/10 16:14:58;;;;;;;1.75;0.80;;;;;;;19.74;42.26;90566.19;1717295;75;670072;-69
2023/03/10 16:17:24;;;;;;;0.95;0.85;;;;;;;19.71;42.37;90570.41;1708415;75;738316;-72
2023/03/10 16:19:50;;;;;;;1.50;0.90;;;;;;;19.70;42.75;90571.81;1717372;75;675399;-71
2023/03/10 16:22:16;;;;;;;1.50;0.90;;;;;;;19.70;42.55;90579.41;1709368;75;669327;-73
2023/03/10 16:24:43;;;;;;;2.00;1.10;;;;;;;19.74;42.66;90584.94;1717604;75;677149;-72
2023/03/10 16:27:09;;;;;;;1.30;0.80;;;;;;;19.74;42.66;90584.94;1708380;75;762620;-73
2023/03/10 16:29:36;;;;;;;1.00;0.80;;;;;;;19.71;42.41;90583.59;1715994;75;757228;-71
2023/03/10 16:32:02;;;;;;;1.25;0.75;;;;;;;19.67;42.52;90591.91;1709453;75;671412;-72
2023/03/10 16:34:28;;;;;;;1.30;1.10;;;;;;;19.72;42.71;90599.53;1717451;75;676628;-70
2023/03/10 16:36:55;;;;;;;1.60;0.80;;;;;;;19.72;42.71;90599.53;1717744;75;673021;-73
2023/03/10 16:39:23;;;;;;;2.20;0.80;;;;;;;19.67;42.59;90589.13;1706610;75;863099;-73
2023/03/10 16:41:49;;;;;;;1.60;0.90;;;;;;;19.66;42.67;90593.31;1717746;75;670105;-73
2023/03/10 16:44:15;;;;;;;1.05;0.80;;;;;;;19.65;42.68;90623.13;1709189;75;673948;-73
2023/03/10 16:46:42;;;;;;;1.60;0.90;;;;;;;19.65;42.70;90614.09;1717440;75;674338;-72
2023/03/10 16:49:13;;;;;;;0.80;0.60;;;;;;;19.64;42.67;90630.06;1708413;75;671634;-72
2023/03/10 16:51:42;;;;;;;1.20;0.90;;;;;;;19.66;42.61;90618.94;1716375;75;666547;-72
2023/03/10 16:54:17;;;;;;;1.20;0.90;;;;;;;19.63;43.01;90622.47;1708307;75;674712;-71
2023/03/10 16:56:47;;;;;;;1.10;0.90;;;;;;;19.64;42.85;90635.59;1717126;75;669056;-73
2023/03/10 16:59:17;;;;;;;1.00;0.80;;;;;;;19.64;42.67;90637.69;1709213;75;672841;-74
2023/03/10 17:01:43;;;;;;;1.80;1.00;;;;;;;19.63;42.84;90630.78;1717203;75;670589;-74
2023/03/10 17:04:10;;;;;;;3.00;1.10;;;;;;;19.61;42.84;90630.78;1710012;75;672736;-72
2023/03/10 17:06:37;;;;;;;;;;;;;;;19.58;42.80;90630.81;1717535;75;672677;-73
2023/03/10 17:09:07;;;;;;;1.60;0.90;;;;;;;19.61;42.85;90637.03;1709788;75;668482;-74
2023/03/10 17:11:37;;;;;;;1.10;0.80;;;;;;;19.60;42.83;90641.19;1717699;75;665089;-71
2023/03/10 17:14:12;;;;;;;1.20;0.60;;;;;;;19.65;42.69;90652.91;1710372;75;667572;-71
2023/03/10 17:16:38;;;;;;;0.80;0.60;;;;;;;19.65;42.69;90652.91;1717508;75;670008;-70
2023/03/10 17:19:10;;;;;;;2.65;0.85;;;;;;;19.62;42.98;90643.25;1709627;75;678851;-72
2023/03/10 17:21:39;;;;;;;1.10;0.70;;;;;;;19.63;42.73;90655.72;1718002;75;674498;-72
2023/03/10 17:24:07;;;;;;;1.10;0.70;;;;;;;19.59;42.76;90678.63;1709681;75;671145;-72
2023/03/10 17:26:34;;;;;;;;;;;;;;;19.61;42.79;90691.78;1717692;75;669205;-71
2023/03/10 17:29:00;;;;;;;1.15;0.70;;;;;;;19.63;42.63;90694.53;1709395;75;670869;-68
2023/03/10 17:31:28;;;;;;;1.90;1.10;;;;;;;19.66;42.71;90710.44;1717306;75;682590;-72
2023/03/10 17:34:11;;;;;;;0.90;0.70;;;;;;;19.61;42.82;90720.19;1717982;75;670432;-73
2023/03/10 17:36:38;;;;;;;1.00;0.70;;;;;;;19.59;42.79;90712.56;1708319;75;760285;-72
2023/03/10 17:39:05;;;;;;;0.90;0.80;;;;;;;19.58;42.97;90718.84;1717996;75;671703;-70
2023/03/10 17:41:34;;;;;;;1.80;0.90;;;;;;;19.57;42.84;90734.75;1710129;75;667689;-72
2023/03/10 17:44:03;;;;;;;0.90;0.80;;;;;;;19.59;43.10;90731.97;1718010;75;669695;-70
2023/03/10 17:46:30;;;;;;;1.05;0.90;;;;;;;19.59;43.10;90731.97;1709948;75;674956;-71
2023/03/10 17:48:56;;;;;;;;;;;;;;;19.56;42.95;90743.78;1717614;75;674890;-70
2023/03/10 17:51:27;;;;;;;1.00;0.70;;;;;;;19.55;43.25;90750.72;1709827;75;679398;-70
2023/03/10 17:53:57;;;;;;;1.35;0.80;;;;;;;19.56;42.89;90777.75;1717559;75;671863;-71
2023/03/10 17:56:23;;;;;;;1.00;0.80;;;;;;;19.53;43.10;90781.94;1710095;75;670095;-70
2023/03/10 17:58:56;;;;;;;1.10;0.80;;;;;;;19.55;43.07;90778.44;1717645;75;667735;-71
2023/03/10 18:01:29;;;;;;;0.70;0.70;;;;;;;19.55;42.86;90772.91;1710238;75;673440;-71
2023/03/10 18:03:58;;;;;;;0.70;0.65;;;;;;;19.55;43.00;90792.31;1717777;75;673911;-72
2023/03/10 18:06:28;;;;;;;1.60;0.90;;;;;;;19.51;43.09;90781.94;1709708;75;665205;-71
2023/03/10 18:08:54;;;;;;;1.10;0.90;;;;;;;19.52;42.89;90763.91;1717704;75;666129;-71
2023/03/10 18:11:20;;;;;;;1.35;0.80;;;;;;;19.49;43.14;90745.25;1710222;75;668394;-69
2023/03/10 18:13:48;;;;;;;0.90;0.75;;;;;;;19.52;43.11;90721.66;1718146;75;668811;-70
2023/03/10 18:16:27;;;;;;;0.90;0.70;;;;;;;19.52;43.11;90721.66;1709602;75;668278;-70
2023/03/10 18:18:54;;;;;;;1.30;0.90;;;;;;;19.44;43.14;90694.69;1717655;75;666969;-71
2023/03/10 18:21:21;;;;;;;1.20;0.70;;;;;;;19.44;43.27;90697.47;1710250;75;667042;-70
2023/03/10 18:23:48;;;;;;;;;;;;;;;19.47;43.06;90707.13;1717825;75;679956;-72
2023/03/10 18:26:18;;;;;;;1.20;1.10;;;;;;;19.43;43.11;90709.91;1709995;75;672211;-67
2023/03/10 18:28:45;;;;;;;0.80;0.80;;;;;;;19.47;43.12;90709.22;1717320;75;687771;-70
2023/03/10 18:31:27;;;;;;;1.00;0.80;;;;;;;19.44;42.91;90710.63;1717781;75;670823;-72
2023/03/10 18:33:54;;;;;;;0.95;0.75;;;;;;;19.44;43.02;90711.31;1708741;75;743294;-69
2023/03/10 18:36:22;;;;;;;1.90;0.90;;;;;;;19.44;42.96;90724.50;1717288;75;671106;-71
2023/03/10 18:38:49;;;;;;;1.15;0.80;;;;;;;19.42;43.23;90719.66;1710244;75;667207;-73
2023/03/10 18:41:19;;;;;;;1.10;0.70;;;;;;;19.45;43.24;90740.41;1718000;75;665862;-72
2023/03/10 18:43:46;;;;;;;0.95;0.70;;;;;;;19.41;43.38;90726.59;1709516;75;672985;-71
2023/03/10 18:46:12;;;;;;;0.70;0.70;;;;;;;19.40;43.20;90741.13;1717934;75;669977;-69
2023/03/10 18:48:38;;;;;;;1.80;0.80;;;;;;;19.38;43.42;90747.38;1709920;75;670424;-70
2023/03/10 18:51:05;;;;;;;1.40;0.80;;;;;;;19.37;43.05;90732.84;1717993;75;664970;-72
2023/03/10 18:53:31;;;;;;;1.10;0.70;;;;;;;19.37;43.05;90732.84;1709584;75;672923;-71
2023/03/10 18:55:59;;;;;;;1.20;0.80;;;;;;;19.43;42.89;90726.56;1717587;75;669247;-71
2023/03/10 18:58:25;;;;;;;1.20;0.70;;;;;;;19.49;42.58;90718.19;1717550;75;671479;-70
2023/03/10 19:00:52;;;;;;;1.90;0.85;;;;;;;19.49;42.58;90718.19;1709551;75;668000;-71
2023/03/10 19:03:18;;;;;;;1.50;0.90;;;;;;;19.43;43.05;90721.00;1717232;75;671730;-70
2023/03/10 19:05:45;;;;;;;0.75;0.65;;;;;;;19.46;42.78;90716.13;1709965;75;668259;-71
2023/03/10 19:08:12;;;;;;;1.75;0.90;;;;;;;19.48;42.67;90727.22;1717455;75;666654;-69
2023/03/10 19:10:39;;;;;;;0.90;0.80;;;;;;;19.48;42.60;90741.06;1709734;75;675100;-70
2023/03/10 19:13:06;;;;;;;3.30;0.80;;;;;;;19.49;42.59;90731.38;1716749;75;711442;-69
2023/03/10 19:15:32;;;;;;;1.60;0.90;;;;;;;19.49;42.69;90718.19;1709332;75;672483;-72
2023/03/10 19:17:58;;;;;;;0.90;0.60;;;;;;;19.49;42.46;90726.53;1717468;75;668732;-69
2023/03/10 19:20:25;;;;;;;0.95;0.75;;;;;;;19.50;42.38;90719.56;1717584;75;671777;-68
2023/03/10 19:22:51;;;;;;;1.70;1.10;;;;;;;19.26;40.76;90730.84;1709806;75;674572;-67
2023/03/10 19:25:19;;;;;;;2.00;1.00;;;;;;;19.40;41.42;90741.13;1717187;75;672648;-67
2023/03/10 19:27:47;;;;;;;1.70;1.20;;;;;;;19.38;42.17;90750.16;1709620;75;679450;-68
2023/03/10 19:30:19;;;;;;;1.10;0.90;;;;;;;19.35;41.96;90759.88;1717721;75;681379;-68
2023/03/10 19:32:46;;;;;;;1.70;1.00;;;;;;;19.36;41.89;90739.78;1709060;75;723794;-75
2023/03/10 19:35:12;;;;;;;;;;;;;;;19.46;42.14;90743.84;1717229;75;679967;-65
2023/03/10 19:37:42;;;;;;;2.55;1.15;;;;;;;19.18;39.81;90739.22;1709929;75;674326;-74
2023/03/10 19:40:17;;;;;;;2.80;1.10;;;;;;;19.48;39.94;90725.16;1713253;75;929948;-74
2023/03/10 19:42:44;;;;;;;1.80;0.90;;;;;;;20.12;39.68;90724.63;1703130;75;950683;-75
2023/03/10 19:45:16;;;;;;;;;;;;;;;20.12;39.68;90724.63;1716118;75;684233;-77
2023/03/10 19:47:43;;;;;;;3.00;1.10;;;;;;;20.53;39.63;90735.28;1710299;75;676030;-72
2023/03/10 19:50:13;;;;;;;3.10;1.15;;;;;;;20.67;39.50;90745.56;1717694;75;671804;-74
2023/03/10 19:52:51;;;;;;;1.80;0.90;;;;;;;20.67;39.50;90745.56;1706204;75;910119;-73
2023/03/10 19:55:22;;;;;;;1.90;1.10;;;;;;;20.73;39.99;90739.94;1716009;75;811495;-71
2023/03/10 19:57:54;;;;;;;1.85;0.90;;;;;;;20.83;39.39;90734.28;1709144;75;686318;-78
2023/03/10 20:00:26;;;;;;;3.30;1.10;;;;;;;20.99;38.96;90734.03;1491791;75;19459687;-78
2023/03/10 20:03:11;;;;;;;2.80;0.70;;;;;;;21.01;39.37;90736.13;1016943;75;20968855;-76
2023/03/10 20:06:07;;;;;;;4.55;0.95;;;;;;;21.01;39.37;90736.13;1084991;75;20980469;-67
2023/03/10 20:09:09;;;;;;;1.98;0.77;;;;;;;21.10;38.98;90731.84;1142153;75;20977822;-71
2023/03/10 20:11:55;;;;;;;3.60;0.90;;;;;;;21.14;38.94;90725.53;1333876;75;20971057;-77
2023/03/10 20:17:11;;;;;;;5.30;1.10;;;;;;;20.96;39.32;90718.81;1686249;75;674412;-71
2023/03/10 20:19:40;;;;;;;;;;;;;;;20.93;39.33;90725.81;1716600;75;662980;-65
2023/03/10 20:22:06;;;;;;;4.70;1.10;;;;;;;20.84;39.51;90733.53;1708199;75;668148;-72
2023/03/10 20:24:32;;;;;;;1.20;0.80;;;;;;;20.71;39.63;90734.41;1717616;75;669800;-68
2023/03/10 20:27:01;;;;;;;3.30;1.00;;;;;;;20.71;39.63;90734.41;1709421;75;672651;-68
2023/03/10 20:29:28;;;;;;;3.65;1.10;;;;;;;20.65;39.89;90749.06;1716687;75;677694;-66
2023/03/10 20:31:54;;;;;;;3.50;1.10;;;;;;;20.61;40.05;90757.41;1709482;75;683415;-69
2023/03/10 20:34:20;;;;;;;1.50;1.10;;;;;;;20.58;40.08;90742.19;1717333;75;703823;-67
2023/03/10 20:36:48;;;;;;;1.55;1.00;;;;;;;20.54;40.18;90740.13;1709392;75;673198;-61
2023/03/10 20:39:14;;;;;;;;;;;;;;;20.51;40.25;90738.09;1718158;75;669203;-69
2023/03/10 20:41:40;;;;;;;2.40;1.00;;;;;;;20.41;40.44;90747.91;1717903;75;661611;-68
2023/03/10 20:44:12;;;;;;;2.30;0.90;;;;;;;20.43;40.42;90753.44;1710123;75;672856;-60
2023/03/10 20:46:45;;;;;;;2.00;1.00;;;;;;;20.42;41.66;90748.59;1718508;75;661109;-59
2023/03/10 20:49:12;;;;;;;4.30;1.10;;;;;;;20.37;41.78;90752.78;1709706;75;735521;-61
2023/03/10 20:51:39;;;;;;;1.75;0.90;;;;;;;20.24;41.82;90740.47;1717862;75;660397;-56
2023/03/10 20:54:06;;;;;;;1.95;0.90;;;;;;;20.24;41.82;90740.47;1710368;75;676556;-59
2023/03/10 20:56:32;;;;;;;2.60;0.90;;;;;;;20.15;41.92;90734.28;1718434;75;658056;-61
2023/03/10 20:59:00;;;;;;;3.55;0.95;;;;;;;20.10;42.00;90705.22;1709772;75;664678;-59
2023/03/10 21:01:28;;;;;;;2.10;1.10;;;;;;;20.05;41.91;90710.13;1718384;75;659760;-60
2023/03/10 21:03:55;;;;;;;1.00;0.80;;;;;;;20.03;41.90;90712.91;1710059;75;675228;-59
2023/03/10 21:06:25;;;;;;;;;;;;;;;19.98;41.95;90720.56;1718279;75;667846;-56
2023/03/10 21:08:52;;;;;;;1.45;0.80;;;;;;;19.95;42.06;90727.53;1710529;75;665388;-59
2023/03/10 21:11:18;;;;;;;1.80;0.90;;;;;;;19.95;42.03;90719.22;1718315;75;662840;-59
2023/03/10 21:13:44;;;;;;;5.15;1.85;;;;;;;19.90;42.04;90734.53;1718087;75;669924;-59
2023/03/10 21:16:12;;;;;;;3.90;1.00;;;;;;;19.89;42.14;90735.94;1710451;75;659257;-55
2023/03/10 21:18:38;;;;;;;1.00;0.80;;;;;;;19.84;42.22;90736.66;1718151;75;659432;-60
2023/03/10 21:21:08;;;;;;;3.70;0.80;;;;;;;19.83;42.22;90749.84;1710078;75;673589;-59
2023/03/10 21:23:36;;;;;;;1.20;0.80;;;;;;;19.79;42.21;90750.56;1717484;75;680292;-59
2023/03/10 21:26:13;;;;;;;2.50;1.00;;;;;;;19.78;42.21;90757.50;1710237;75;661836;-60
2023/03/10 21:28:40;;;;;;;1.80;0.90;;;;;;;19.77;42.27;90783.88;1718106;75;659177;-59
2023/03/10 21:31:06;;;;;;;2.80;0.80;;;;;;;19.74;42.24;90790.81;1710075;75;660485;-60
2023/03/10 21:33:32;;;;;;;0.70;0.60;;;;;;;19.71;42.29;90803.31;1718164;75;665990;-60
2023/03/10 21:36:00;;;;;;;2.15;1.10;;;;;;;19.73;42.30;90802.63;1710091;75;669533;-61
2023/03/10 21:38:26;;;;;;;1.70;0.90;;;;;;;19.71;42.34;90805.41;1718067;75;664696;-58
2023/03/10 21:40:52;;;;;;;2.00;0.80;;;;;;;19.68;42.48;90806.81;1710315;75;672977;-59
2023/03/10 21:43:18;;;;;;;1.10;0.70;;;;;;;19.67;42.45;90813.72;1718075;75;667926;-70
2023/03/10 21:45:45;;;;;;;1.20;1.00;;;;;;;19.71;42.14;90847.00;1718167;75;662719;-66
2023/03/10 21:48:11;;;;;;;1.70;0.80;;;;;;;19.70;42.86;90849.09;1710421;75;665046;-58
2023/03/10 21:50:38;;;;;;;3.70;1.00;;;;;;;19.74;43.06;90826.16;1718193;75;667068;-72
2023/03/10 21:53:05;;;;;;;;;;;;;;;19.69;43.01;90819.97;1710170;75;671969;-70
2023/03/10 21:55:33;;;;;;;5.20;1.10;;;;;;;19.69;43.12;90802.63;1718233;75;667870;-68
2023/03/10 21:58:00;;;;;;;1.50;0.70;;;;;;;19.75;43.19;90791.50;1709797;75;700948;-68
2023/03/10 22:00:26;;;;;;;;;;;;;;;19.71;43.32;90783.22;1718319;75;666300;-72
2023/03/10 22:02:52;;;;;;;3.70;1.10;;;;;;;19.68;43.27;90793.63;1710610;75;664613;-73
2023/03/10 22:05:19;;;;;;;4.25;0.70;;;;;;;19.68;43.34;90798.50;1718500;75;668602;-67
2023/03/10 22:07:45;;;;;;;1.85;0.85;;;;;;;19.71;43.40;90797.75;1718658;75;663877;-66
2023/03/10 22:10:13;;;;;;;23.10;1.05;;;;;;;19.68;43.36;90790.19;1709231;75;747293;-74
2023/03/10 22:12:39;;;;;;;7.50;0.90;;;;;;;19.87;42.79;90829.56;1717514;75;668912;-74
2023/03/10 22:15:11;;;;;;;4.30;0.80;;;;;;;19.87;42.79;90829.56;1710288;75;664874;-68
2023/03/10 22:17:38;;;;;;;2.45;0.70;;;;;;;19.86;41.94;90851.03;1717616;75;670821;-67
2023/03/10 22:20:06;;;;;;;0.90;0.70;;;;;;;19.88;41.94;90859.34;1709985;75;672635;-71
2023/03/10 22:22:34;;;;;;;1.60;0.55;;;;;;;19.94;41.69;90866.94;1728630;64;666755;-67
2023/03/10 22:25:00;;;;;;;3.05;0.70;;;;;;;19.97;41.82;90868.31;1719320;64;668601;-69
2023/03/10 22:27:27;;;;;;;3.40;0.80;;;;;;;19.99;41.70;90871.75;1723600;64;666426;-68
2023/03/10 22:29:53;;;;;;;4.40;0.90;;;;;;;19.97;41.78;90880.09;1709939;75;671536;-66
2023/03/10 22:32:20;;;;;;;2.80;0.60;;;;;;;20.00;41.84;90864.81;1717970;75;664416;-68